METAR de aeropuertos de Murcia y cercanos

 

LEMI - Murcia/Corvera
Actualización: 17/01/2020 17:00
Despejado
Despejado
 Viento del SSE
Viento: SSE 4 km/h
Temperatura: 18°C
Rocío: 6°C
Humedad: 46%
Barómetro: 1029 hPa
Resumen: Despejado
Visibilidad: greater than 10 km
2020/01/17 16:00 LEMI 171600Z 16002KT CAVOK 18/06 Q1029
LERI - Murcia/Alcantarilla
Actualización: 17/01/2020 16:07
Despejado
Despejado
 Viento del NNO
Viento: NNO 19 km/h
Temperatura: 19°C
Rocío: 4°C
Humedad: 37%
Barómetro: 1029 hPa
Resumen: Despejado
Visibilidad: greater than 10 km
2020/01/17 15:07 LERI 171507Z 34010KT 320V030 CAVOK 19/04 Q1029 NOSIG
LELC - Murcia/San Javier
Actualización: 17/01/2020 17:00
Despejado
Despejado
 Viento del SSO
Viento: SSO 17 km/h
Temperatura: 17°C
Rocío: 10°C
Humedad: 64%
Barómetro: 1029 hPa
Resumen: Despejado
Visibilidad: greater than 10 km
2020/01/17 16:00 LELC 171600Z 20009KT CAVOK 17/10 Q1029 NOSIG
 
LEAL - Alicante
Actualización: 17/01/2020 17:00
Despejado
Despejado
 Viento del ONO
Viento: ONO 19 km/h
Temperatura: 19°C
Rocío: 4°C
Humedad: 37%
Barómetro: 1028 hPa
Resumen: Despejado
Visibilidad: greater than 10 km
2020/01/17 16:00 LEAL 171600Z 30010KT 260V330 CAVOK 19/04 Q1028 NOSIG
LEAB - Albacete
Actualización: 17/01/2020 16:00
Few Clouds
Few Clouds
 Viento del ONO
Viento: ONO 28 km/h
Temperatura: 13°C
Rocío: 3°C
Humedad: 51%
Barómetro: 1030 hPa
Nubosidad: Few Clouds
Visibilidad: 10 km
Cloud details: Few Clouds 1372 m
2020/01/17 15:00 LEAB 171500Z 30015KT 9999 FEW045 13/03 Q1030 NOSIG
LEAM - Almería
Actualización: 17/01/2020 17:00
Despejado
Despejado
 Viento del S
Viento: S 7 km/h
Temperatura: 16°C
Rocío: 10°C
Humedad: 68%
Barómetro: 1029 hPa
Resumen: Despejado
Visibilidad: greater than 10 km
2020/01/17 16:00 LEAM 171600Z 17004KT CAVOK 16/10 Q1029

La estación de MeteoMurcia.com, publica sus datos en los siguientes proyectos:

Weather Underground PWS IMURCIAP2 Meteoclimatic www.awekas.at

W3Counter
Web Analytics